Time;durP1;ratioP1;P1;durP2;ratioP2;P2;SDS_P1;SDS_P2;PMS_P1;PMS_P2;Temp;Humidity;BMP_temperature;BMP_pressure;BME280_temperature;BME280_humidity;BME280_pressure;Samples;Min_cycle;Max_cycle;Signal;HPM_P1;HPM_P2
2023/04/03 00:02:09;;;;;;;7.55;6.32;;;;;;;5.06;63.42;102877.69;5064841;28;20069;-67
2023/04/03 00:04:34;;;;;;;8.70;6.60;;;;;;;5.02;63.89;102884.56;5069262;28;20034;-67
2023/04/03 00:07:00;;;;;;;8.77;6.75;;;;;;;5.01;64.12;102889.22;5074920;28;20031;-67
2023/04/03 00:09:25;;;;;;;7.00;6.38;;;;;;;5.04;64.08;102877.88;5067464;28;20032;-67
2023/04/03 00:11:51;;;;;;;7.97;6.20;;;;;;;5.02;63.89;102879.91;5049120;28;20487;-67
2023/04/03 00:14:16;;;;;;;7.07;6.20;;;;;;;5.01;63.61;102882.84;5050327;28;20021;-67
2023/04/03 00:16:42;;;;;;;7.97;6.28;;;;;;;4.96;63.53;102880.59;5056393;28;20079;-67
2023/04/03 00:19:08;;;;;;;7.35;6.35;;;;;;;4.95;63.94;102884.38;5067132;28;20135;-67
2023/04/03 00:21:33;;;;;;;7.47;6.70;;;;;;;5.00;63.99;102887.50;5061440;28;20111;-68
2023/04/03 00:23:59;;;;;;;8.02;6.43;;;;;;;5.00;63.79;102897.66;5069326;28;20503;-67
2023/04/03 00:26:25;;;;;;;7.00;6.28;;;;;;;4.97;63.94;102903.47;5070152;28;20116;-67
2023/04/03 00:28:50;;;;;;;7.57;6.88;;;;;;;4.93;64.33;102897.44;5069227;28;20032;-67
2023/04/03 00:31:16;;;;;;;6.97;6.22;;;;;;;4.93;63.71;102898.31;5068733;28;20020;-67
2023/04/03 00:33:41;;;;;;;8.10;6.65;;;;;;;4.92;64.08;102898.47;5068877;28;20720;-67
2023/04/03 00:36:09;;;;;;;8.30;7.25;;;;;;;4.94;64.24;102901.91;5079887;28;20105;-67
2023/04/03 00:38:34;;;;;;;9.20;7.38;;;;;;;4.91;64.04;102896.72;5075257;28;20031;-67
2023/04/03 00:41:00;;;;;;;8.10;6.95;;;;;;;4.88;63.96;102900.69;5080318;28;20028;-67
2023/04/03 00:43:28;;;;;;;10.55;6.93;;;;;;;4.88;64.41;102906.19;5069171;28;20078;-67
2023/04/03 00:45:55;;;;;;;8.30;7.50;;;;;;;4.86;64.24;102905.50;5060063;28;20051;-67
2023/04/03 00:48:43;;;;;;;8.32;6.55;;;;;;;4.92;64.43;102904.84;5069187;28;20500;-67
2023/04/03 00:51:13;;;;;;;9.15;7.20;;;;;;;4.84;64.22;102901.19;5069807;28;20028;-67
2023/04/03 00:53:49;;;;;;;8.73;7.45;;;;;;;4.78;64.49;102910.97;5068074;28;20021;-67
2023/04/03 00:56:17;;;;;;;8.40;6.80;;;;;;;4.75;64.23;102915.91;5070303;28;20032;-68
2023/04/03 00:58:51;;;;;;;7.97;6.88;;;;;;;4.77;64.50;102911.13;5066796;28;20044;-67
2023/04/03 01:01:21;;;;;;;11.40;7.13;;;;;;;4.72;64.66;102910.78;5069975;28;20158;-67
2023/04/03 01:03:46;;;;;;;7.47;6.78;;;;;;;4.68;64.21;102916.59;5064234;28;20028;-67
2023/04/03 01:06:14;;;;;;;8.27;6.68;;;;;;;4.69;64.33;102911.94;5068121;28;20542;-67
2023/04/03 01:08:39;;;;;;;9.63;6.88;;;;;;;4.65;64.56;102911.41;5068984;28;20396;-67
2023/04/03 01:11:05;;;;;;;10.13;7.28;;;;;;;4.64;64.78;102909.69;5075400;28;20036;-67
2023/04/03 01:13:32;;;;;;;12.77;7.43;;;;;;;4.62;64.79;102913.63;5075873;28;20115;-67
2023/04/03 01:16:03;;;;;;;8.38;6.93;;;;;;;4.63;64.78;102913.44;5062681;28;20476;-67
2023/04/03 01:18:29;;;;;;;8.07;6.68;;;;;;;4.62;64.74;102911.72;5068462;28;20024;-67
2023/04/03 01:21:32;;;;;;;9.05;6.57;;;;;;;4.65;64.55;102914.16;5068258;28;20433;-67
2023/04/03 01:24:08;;;;;;;;;;;;;;;4.83;64.18;102918.72;5069085;28;20082;-67
2023/04/03 01:26:34;;;;;;;7.60;6.47;;;;;;;4.67;64.30;102919.50;5069376;28;20019;-67
2023/04/03 01:29:00;;;;;;;7.40;6.70;;;;;;;4.61;64.24;102912.78;5050107;28;20441;-67
2023/04/03 01:31:31;;;;;;;9.50;7.15;;;;;;;4.59;64.43;102916.69;5069288;28;20104;-67
2023/04/03 01:33:57;;;;;;;7.53;6.40;;;;;;;4.60;64.78;102913.81;5068840;28;20064;-67
2023/04/03 01:36:25;;;;;;;8.05;6.93;;;;;;;4.58;65.10;102921.34;5069080;28;20048;-67
2023/04/03 01:38:52;;;;;;;7.55;6.80;;;;;;;4.58;65.25;102921.34;5089732;28;20024;-67
2023/04/03 01:41:20;;;;;;;7.43;6.40;;;;;;;4.53;64.99;102920.97;5073890;28;20634;-67
2023/04/03 01:43:46;;;;;;;8.50;6.85;;;;;;;4.53;64.69;102918.22;5067270;28;21695;-67
2023/04/03 01:46:11;;;;;;;8.13;7.35;;;;;;;4.49;65.10;102918.72;5068229;28;20036;-67
2023/04/03 01:48:36;;;;;;;6.90;6.18;;;;;;;4.46;64.81;102919.91;5068633;28;20043;-67
2023/04/03 01:51:02;;;;;;;9.77;6.93;;;;;;;4.46;64.60;102917.16;5070938;28;20038;-67
2023/04/03 01:53:27;;;;;;;7.07;6.40;;;;;;;4.42;64.70;102921.25;5070259;28;20025;-67
2023/04/03 01:55:53;;;;;;;6.88;6.10;;;;;;;4.43;64.85;102912.81;5071200;28;20024;-67
2023/04/03 01:58:18;;;;;;;6.80;6.20;;;;;;;4.39;64.60;102908.66;5072834;28;20025;-67
2023/04/03 02:00:43;;;;;;;6.82;6.03;;;;;;;4.38;64.76;102922.59;5056724;28;20620;-67
2023/04/03 02:03:08;;;;;;;6.80;6.15;;;;;;;4.34;64.72;102916.56;5062396;28;20035;-67
2023/04/03 02:05:34;;;;;;;6.95;6.30;;;;;;;4.33;64.50;102920.34;5087113;28;20071;-67
2023/04/03 02:08:00;;;;;;;7.05;6.25;;;;;;;4.30;64.57;102917.91;5092940;28;20027;-67
2023/04/03 02:10:25;;;;;;;7.40;6.68;;;;;;;4.32;64.55;102920.47;5078330;28;20033;-66
2023/04/03 02:12:51;;;;;;;9.48;6.10;;;;;;;4.28;64.28;102924.56;5071690;28;20037;-65
2023/04/03 02:15:16;;;;;;;7.50;6.20;;;;;;;4.29;64.37;102924.44;5072605;28;20043;-66
2023/04/03 02:17:42;;;;;;;6.85;6.18;;;;;;;4.28;64.32;102925.44;5071356;28;20044;-66
2023/04/03 02:20:08;;;;;;;7.00;6.30;;;;;;;4.27;64.19;102926.47;5073681;28;20617;-65
2023/04/03 02:22:33;;;;;;;8.85;6.90;;;;;;;4.23;64.60;102924.19;5094318;28;20039;-67
2023/04/03 02:24:58;;;;;;;6.82;6.15;;;;;;;4.25;64.70;102919.41;5075513;28;20414;-67
2023/04/03 02:27:24;;;;;;;8.10;6.50;;;;;;;4.23;64.78;102926.94;5073443;28;20024;-66
2023/04/03 02:29:49;;;;;;;6.75;6.05;;;;;;;4.23;64.59;102924.19;5072647;28;20111;-66
2023/04/03 02:32:14;;;;;;;9.60;6.97;;;;;;;4.22;64.85;102930.72;5074773;28;20032;-66
2023/04/03 02:34:40;;;;;;;8.75;7.00;;;;;;;4.19;64.71;102932.75;5071276;28;20092;-66
2023/04/03 02:37:06;;;;;;;7.78;6.65;;;;;;;4.18;64.84;102930.19;5076940;28;20039;-66
2023/04/03 02:39:31;;;;;;;7.60;6.88;;;;;;;4.15;64.83;102938.75;5075621;28;20028;-66
2023/04/03 02:41:56;;;;;;;7.80;7.00;;;;;;;4.13;64.76;102933.41;5076731;28;20023;-66
2023/04/03 02:44:23;;;;;;;7.60;6.80;;;;;;;4.14;64.89;102946.13;5077609;28;20077;-67
2023/04/03 02:46:48;;;;;;;6.95;6.25;;;;;;;4.10;64.81;102941.97;5062994;28;20047;-67
2023/04/03 02:49:14;;;;;;;7.32;6.45;;;;;;;4.07;64.96;102944.19;5086466;28;20379;-66
2023/04/03 02:51:39;;;;;;;7.32;6.63;;;;;;;4.06;65.15;102946.06;5071510;28;20380;-66
2023/04/03 02:54:04;;;;;;;7.70;6.85;;;;;;;4.08;65.26;102944.00;5066793;28;20115;-66
2023/04/03 02:56:30;;;;;;;9.60;7.30;;;;;;;4.08;64.81;102945.91;5071552;28;20563;-66
2023/04/03 02:58:55;;;;;;;8.80;6.72;;;;;;;4.07;65.21;102947.78;5066618;28;20025;-67
2023/04/03 03:01:21;;;;;;;9.07;7.20;;;;;;;4.07;64.83;102946.91;5066645;28;20082;-67
2023/04/03 03:03:46;;;;;;;8.13;6.55;;;;;;;4.03;65.27;102945.50;5078939;28;20033;-66
2023/04/03 03:06:13;;;;;;;7.63;6.78;;;;;;;4.01;64.88;102940.19;5068972;28;20511;-67
2023/04/03 03:08:39;;;;;;;7.53;6.25;;;;;;;4.00;65.29;102943.94;5070956;28;20178;-66
2023/04/03 03:11:05;;;;;;;7.88;5.93;;;;;;;4.00;65.00;102943.06;5060097;28;20056;-67
2023/04/03 03:13:31;;;;;;;8.35;6.30;;;;;;;4.00;65.30;102941.19;5070479;28;20040;-66
2023/04/03 03:15:56;;;;;;;6.65;6.00;;;;;;;4.04;65.10;102941.75;5070923;28;20033;-66
2023/04/03 03:18:22;;;;;;;8.40;5.88;;;;;;;4.01;65.23;102931.06;5076426;28;20553;-66
2023/04/03 03:20:54;;;;;;;8.27;6.45;;;;;;;4.03;65.26;102938.13;5067532;28;20068;-66
2023/04/03 03:23:21;;;;;;;7.93;5.93;;;;;;;4.01;65.00;102940.19;5071066;28;20025;-65
2023/04/03 03:25:46;;;;;;;7.85;6.15;;;;;;;4.02;65.16;102936.41;5070061;28;20044;-66
2023/04/03 03:28:11;;;;;;;7.72;6.07;;;;;;;4.04;64.57;102939.00;5062467;28;20032;-66
2023/04/03 03:30:36;;;;;;;7.15;5.63;;;;;;;4.02;65.20;102944.66;5070634;28;20479;-66
2023/04/03 03:33:02;;;;;;;9.98;6.03;;;;;;;4.01;64.90;102948.44;5081444;28;20340;-66
2023/04/03 03:35:27;;;;;;;7.47;5.22;;;;;;;4.01;65.17;102945.69;5090142;28;20032;-66
2023/04/03 03:37:53;;;;;;;6.28;5.38;;;;;;;3.99;64.92;102947.72;5072015;28;20052;-67
2023/04/03 03:40:18;;;;;;;7.05;5.10;;;;;;;4.02;64.95;102952.03;5070637;28;20368;-66
2023/04/03 03:42:43;;;;;;;7.57;4.97;;;;;;;4.00;65.12;102949.44;5068734;28;20118;-66
2023/04/03 03:45:09;;;;;;;5.53;4.90;;;;;;;4.02;65.02;102960.28;5070466;28;20085;-66
2023/04/03 03:47:35;;;;;;;6.13;4.97;;;;;;;4.00;65.50;102962.31;5079259;28;20031;-66
2023/04/03 03:50:00;;;;;;;8.38;4.97;;;;;;;4.02;65.10;102969.38;5090025;28;20135;-66
2023/04/03 03:52:26;;;;;;;6.45;5.20;;;;;;;4.00;65.33;102976.06;5078156;28;20107;-66
2023/04/03 03:54:51;;;;;;;7.38;5.30;;;;;;;3.99;64.76;102963.34;5069447;28;20369;-66
2023/04/03 03:57:16;;;;;;;6.50;4.65;;;;;;;3.96;65.31;102974.63;5069651;28;20059;-66
2023/04/03 03:59:43;;;;;;;7.38;4.75;;;;;;;4.02;65.19;102961.16;5069544;28;20028;-66
2023/04/03 04:02:09;;;;;;;6.25;4.72;;;;;;;3.98;65.36;102976.22;5069722;28;20373;-66
2023/04/03 04:04:34;;;;;;;7.00;4.72;;;;;;;4.04;64.97;102964.56;5070051;28;20042;-66
2023/04/03 04:07:02;;;;;;;7.03;4.57;;;;;;;4.05;64.94;102974.56;5070112;28;20032;-66
2023/04/03 04:09:27;;;;;;;5.45;4.45;;;;;;;4.09;65.13;102977.88;5075413;28;20075;-66
2023/04/03 04:11:53;;;;;;;6.63;4.25;;;;;;;4.13;64.77;102977.38;5087569;28;20125;-67
2023/04/03 04:14:20;;;;;;;7.45;4.30;;;;;;;4.11;65.02;102971.19;5065441;28;20048;-67
2023/04/03 04:16:46;;;;;;;4.68;4.05;;;;;;;4.09;64.56;102969.63;5068224;28;20111;-66
2023/04/03 04:19:11;;;;;;;5.68;4.40;;;;;;;4.11;65.25;102973.06;5062954;28;20175;-66
2023/04/03 04:21:36;;;;;;;9.93;4.57;;;;;;;4.13;64.63;102980.13;5069941;28;20032;-66
2023/04/03 04:24:02;;;;;;;6.07;3.90;;;;;;;4.12;64.71;102972.88;5068516;28;20024;-66
2023/04/03 04:26:27;;;;;;;4.50;3.92;;;;;;;4.08;64.29;102973.38;5069068;28;20032;-66
2023/04/03 04:28:53;;;;;;;6.05;4.40;;;;;;;4.06;64.46;102975.44;5068969;28;20031;-66
2023/04/03 04:31:18;;;;;;;5.03;4.30;;;;;;;4.05;64.35;102969.06;5063565;28;20650;-66
2023/04/03 04:33:43;;;;;;;7.32;3.95;;;;;;;4.04;64.93;102969.22;5068695;28;20040;-66
2023/04/03 04:36:09;;;;;;;6.97;4.18;;;;;;;4.04;64.78;102975.56;5050033;28;20085;-66
2023/04/03 04:38:34;;;;;;;5.60;4.22;;;;;;;4.03;64.72;102970.25;5062212;28;20179;-66
2023/04/03 04:40:59;;;;;;;7.35;4.70;;;;;;;4.02;64.99;102968.53;5089909;28;20081;-66
2023/04/03 04:43:25;;;;;;;6.50;3.95;;;;;;;4.01;64.68;102967.66;5087665;28;20039;-66
2023/04/03 04:46:04;;;;;;;5.57;3.95;;;;;;;4.03;64.66;102976.59;5084908;28;20124;-66
2023/04/03 04:48:30;;;;;;;5.90;3.60;;;;;;;4.09;64.75;102977.88;5067720;28;20036;-66
2023/04/03 04:50:55;;;;;;;5.88;4.03;;;;;;;4.08;64.34;102979.72;5066541;28;20032;-67
2023/04/03 04:53:20;;;;;;;7.13;3.72;;;;;;;4.11;64.27;102979.41;5066017;28;20032;-67
2023/04/03 04:55:46;;;;;;;6.70;3.75;;;;;;;4.13;64.95;102991.13;5072845;28;20033;-67
2023/04/03 04:58:11;;;;;;;6.53;3.60;;;;;;;4.16;64.12;102987.19;5069285;28;20027;-67
2023/04/03 05:00:36;;;;;;;7.07;3.60;;;;;;;4.19;63.78;102997.88;5066324;28;20488;-67
2023/04/03 05:03:01;;;;;;;4.78;3.47;;;;;;;4.19;63.44;102992.38;5070737;28;20025;-67
2023/04/03 05:05:27;;;;;;;6.75;3.97;;;;;;;4.15;63.74;103002.81;5069486;28;20558;-68
2023/04/03 05:07:53;;;;;;;4.15;3.38;;;;;;;4.17;63.71;103000.78;5068780;28;20077;-67
2023/04/03 05:10:18;;;;;;;9.85;4.07;;;;;;;4.19;63.65;102993.22;5069617;28;20021;-67
2023/04/03 05:12:43;;;;;;;5.82;3.90;;;;;;;4.19;63.79;102995.13;5066476;28;20078;-67
2023/04/03 05:15:09;;;;;;;4.75;3.05;;;;;;;4.19;63.35;102995.13;5075966;28;20036;-67
2023/04/03 05:17:34;;;;;;;5.60;3.72;;;;;;;4.21;63.83;102997.72;5089619;28;20077;-67
2023/04/03 05:19:59;;;;;;;4.72;3.20;;;;;;;4.21;63.74;103006.84;5086881;28;20020;-67
2023/04/03 05:22:25;;;;;;;4.57;3.25;;;;;;;4.23;63.62;102996.53;5066488;28;20037;-66
2023/04/03 05:24:50;;;;;;;4.70;3.40;;;;;;;4.22;63.58;103005.81;5070517;28;20034;-66
2023/04/03 05:27:16;;;;;;;5.65;3.50;;;;;;;4.21;63.25;103016.97;5080521;28;20040;-66
2023/04/03 05:29:43;;;;;;;5.55;2.88;;;;;;;4.18;63.73;103012.63;5087074;28;20106;-65
2023/04/03 05:32:09;;;;;;;6.15;3.58;;;;;;;4.19;63.20;103017.09;5093544;28;20024;-67
2023/04/03 05:34:34;;;;;;;8.43;3.75;;;;;;;4.21;63.33;103016.97;5092450;28;20054;-66
2023/04/03 05:37:00;;;;;;;6.07;3.13;;;;;;;4.24;63.39;103019.38;5093542;28;20031;-67
2023/04/03 05:39:25;;;;;;;5.10;3.30;;;;;;;4.25;63.18;103007.38;5093343;28;20102;-68
2023/04/03 05:41:50;;;;;;;6.50;3.10;;;;;;;4.24;63.43;103019.38;5082681;28;20529;-66
2023/04/03 05:44:16;;;;;;;5.57;3.35;;;;;;;4.21;63.20;103022.47;5087027;28;20028;-67
2023/04/03 05:46:41;;;;;;;6.97;3.58;;;;;;;4.26;63.16;103014.59;5073049;28;20387;-67
2023/04/03 05:49:06;;;;;;;6.90;3.33;;;;;;;4.23;63.44;103021.25;5072520;28;20029;-67
2023/04/03 05:51:35;;;;;;;6.03;3.13;;;;;;;4.30;63.14;103029.75;5072577;28;20021;-67
2023/04/03 05:54:12;;;;;;;5.82;3.38;;;;;;;4.34;62.63;103025.66;5066949;28;20482;-67
2023/04/03 05:56:37;;;;;;;5.47;3.35;;;;;;;4.37;62.59;103034.47;5067873;28;20036;-66
2023/04/03 05:59:02;;;;;;;5.40;3.05;;;;;;;4.38;62.60;103024.31;5067396;28;20028;-67
2023/04/03 06:01:28;;;;;;;3.40;3.10;;;;;;;4.41;62.17;103029.50;5071829;28;20025;-66
2023/04/03 06:03:54;;;;;;;4.25;3.45;;;;;;;4.42;62.45;103023.84;5057612;28;20025;-67
2023/04/03 06:06:19;;;;;;;6.20;3.42;;;;;;;4.46;62.63;103027.13;5064870;28;20070;-66
2023/04/03 06:08:45;;;;;;;6.47;3.15;;;;;;;4.47;62.19;103023.34;5066287;28;20527;-70
2023/04/03 06:11:11;;;;;;;4.90;3.17;;;;;;;4.52;62.12;103032.00;5071057;28;20033;-66
2023/04/03 06:13:37;;;;;;;8.10;3.22;;;;;;;4.53;62.01;103027.38;5071421;28;20036;-67
2023/04/03 06:16:03;;;;;;;5.65;3.00;;;;;;;4.49;61.67;103025.97;5067487;28;20036;-68
2023/04/03 06:18:29;;;;;;;4.47;2.80;;;;;;;4.55;61.92;103030.81;5061350;28;20067;-68
2023/04/03 06:20:55;;;;;;;6.57;3.03;;;;;;;4.59;61.72;103041.31;5068992;28;20035;-69
2023/04/03 06:23:20;;;;;;;6.60;3.10;;;;;;;4.64;61.79;103041.72;5068056;28;20025;-68
2023/04/03 06:25:48;;;;;;;4.97;3.05;;;;;;;4.71;61.51;103039.19;5066307;28;20850;-69
2023/04/03 06:28:14;;;;;;;5.32;3.47;;;;;;;4.77;61.50;103043.19;5083144;28;20031;-68
2023/04/03 06:30:39;;;;;;;6.25;3.10;;;;;;;4.81;61.05;103042.69;5057336;28;20025;-68
2023/04/03 06:33:05;;;;;;;6.57;3.00;;;;;;;4.85;61.12;103046.84;5062599;28;20469;-68
2023/04/03 06:35:34;;;;;;;6.88;3.25;;;;;;;4.88;60.94;103053.94;5055140;28;20028;-66
2023/04/03 06:38:07;;;;;;;5.55;3.13;;;;;;;4.86;60.80;103054.06;5055074;28;20032;-67
2023/04/03 06:40:32;;;;;;;9.32;3.50;;;;;;;4.88;61.10;103053.94;5064986;28;20055;-66
2023/04/03 06:42:58;;;;;;;5.85;3.22;;;;;;;4.95;60.70;103045.88;5068962;28;20472;-67
2023/04/03 06:45:25;;;;;;;6.43;2.92;;;;;;;5.00;60.82;103052.63;5068787;28;20033;-67
2023/04/03 06:47:50;;;;;;;6.75;3.10;;;;;;;5.02;60.50;103053.31;5063814;28;20017;-68
2023/04/03 06:50:15;;;;;;;5.15;2.80;;;;;;;5.05;60.36;103054.91;5055427;28;20025;-69
2023/04/03 06:52:41;;;;;;;4.65;2.85;;;;;;;5.01;59.78;103061.75;5088603;28;20028;-66
2023/04/03 06:55:08;;;;;;;5.43;3.05;;;;;;;4.97;60.27;103063.09;5090663;28;20030;-67
2023/04/03 06:57:33;;;;;;;7.80;2.90;;;;;;;4.97;60.38;103054.84;5088913;28;20039;-68
2023/04/03 06:59:58;;;;;;;6.30;3.45;;;;;;;5.02;60.36;103058.81;5090352;28;20028;-68
2023/04/03 07:02:23;;;;;;;5.22;3.28;;;;;;;5.04;60.40;103066.94;5090163;28;20036;-66
2023/04/03 07:04:49;;;;;;;6.70;3.28;;;;;;;5.05;60.09;103065.91;5066097;28;20350;-66
2023/04/03 07:07:14;;;;;;;7.88;3.20;;;;;;;5.06;59.72;103062.97;5066439;28;20041;-66
2023/04/03 07:09:40;;;;;;;7.28;2.72;;;;;;;5.01;60.13;103059.84;5049921;28;20108;-68
2023/04/03 07:12:06;;;;;;;12.57;3.53;;;;;;;5.07;62.97;103064.72;5060567;28;20055;-67
2023/04/03 07:14:31;;;;;;;5.90;2.88;;;;;;;5.11;60.45;103066.13;5065566;28;20031;-66
2023/04/03 07:16:56;;;;;;;4.80;3.10;;;;;;;5.15;60.01;103058.41;5061735;28;20039;-66
2023/04/03 07:19:21;;;;;;;8.05;3.35;;;;;;;5.15;59.41;103078.53;5066888;28;20024;-66
2023/04/03 07:21:47;;;;;;;5.38;3.30;;;;;;;5.18;60.00;103077.31;5062855;28;20028;-63
2023/04/03 07:24:15;;;;;;;5.20;2.90;;;;;;;5.25;60.13;103074.78;5069314;28;20032;-66
2023/04/03 07:26:41;;;;;;;6.22;3.28;;;;;;;5.29;59.63;103068.78;5069088;28;20407;-68
2023/04/03 07:29:06;;;;;;;5.65;2.95;;;;;;;5.36;59.96;103071.75;5074014;28;20016;-68
2023/04/03 07:31:31;;;;;;;4.78;3.20;;;;;;;5.44;59.30;103079.19;5074153;28;20024;-67
2023/04/03 07:33:56;;;;;;;5.43;2.78;;;;;;;5.53;59.86;103078.19;5066492;28;20437;-68
2023/04/03 07:36:22;;;;;;;5.65;3.10;;;;;;;5.64;58.41;103083.41;5074642;28;20525;-68
2023/04/03 07:38:48;;;;;;;5.45;2.95;;;;;;;5.68;58.30;103084.81;5070138;28;20028;-65
2023/04/03 07:41:17;;;;;;;7.18;2.95;;;;;;;5.78;58.30;103082.78;5059093;28;20027;-63
2023/04/03 07:43:42;;;;;;;4.32;3.00;;;;;;;5.87;57.58;103086.44;5051121;28;20051;-67
2023/04/03 07:46:08;;;;;;;7.90;3.28;;;;;;;5.97;57.64;103092.69;5069842;28;20032;-64
2023/04/03 07:48:34;;;;;;;5.70;2.85;;;;;;;6.01;57.44;103094.09;5098374;28;20112;-66
2023/04/03 07:51:01;;;;;;;9.02;3.42;;;;;;;6.09;56.87;103090.47;5063586;28;20025;-64
2023/04/03 07:53:28;;;;;;;6.15;2.80;;;;;;;6.15;56.90;103087.91;5056923;28;20024;-66
2023/04/03 07:55:55;;;;;;;8.25;3.08;;;;;;;6.23;56.29;103091.72;5065881;28;20392;-66
2023/04/03 07:58:21;;;;;;;6.57;2.95;;;;;;;6.32;56.27;103082.41;5063489;28;20036;-68
2023/04/03 08:00:50;;;;;;;8.85;3.10;;;;;;;6.44;56.28;103086.56;5062755;28;20032;-71
2023/04/03 08:03:18;;;;;;;6.57;2.90;;;;;;;6.58;56.41;103085.03;5059648;28;20078;-68
2023/04/03 08:05:46;;;;;;;6.88;2.88;;;;;;;6.66;54.83;103096.06;5063103;28;20035;-71
2023/04/03 08:08:14;;;;;;;4.25;2.72;;;;;;;6.81;55.30;103086.06;5077416;28;20020;-70
2023/04/03 08:10:40;;;;;;;8.65;3.38;;;;;;;6.86;54.77;103097.44;5053148;28;20060;-71
2023/04/03 08:13:07;;;;;;;7.80;2.92;;;;;;;6.96;53.82;103090.91;5062541;28;20416;-73
2023/04/03 08:15:32;;;;;;;6.38;2.50;;;;;;;7.01;53.41;103088.47;5061342;28;20044;-72
2023/04/03 08:17:59;;;;;;;6.22;3.00;;;;;;;7.03;53.15;103092.75;5052777;28;20431;-66
2023/04/03 08:20:24;;;;;;;6.38;2.60;;;;;;;7.12;53.49;103097.25;5069113;28;20025;-68
2023/04/03 08:22:50;;;;;;;6.00;2.58;;;;;;;7.73;68.26;103094.81;5064798;28;20068;-71
2023/04/03 08:25:17;;;;;;;4.63;2.67;;;;;;;7.62;52.46;103104.38;5064397;28;20373;-75
2023/04/03 08:27:42;;;;;;;5.20;2.72;;;;;;;7.67;56.15;103092.78;5062293;28;20040;-74
2023/04/03 08:30:08;;;;;;;8.85;2.70;;;;;;;7.62;52.04;103096.06;5065995;28;20521;-73
2023/04/03 08:32:35;;;;;;;8.57;2.78;;;;;;;7.67;51.66;103094.69;5059341;28;20086;-76
2023/04/03 08:35:01;;;;;;;6.45;2.92;;;;;;;7.65;51.48;103099.50;5059310;28;20070;-75
2023/04/03 08:37:26;;;;;;;7.60;2.50;;;;;;;7.66;51.44;103107.59;5065319;28;20060;-73
2023/04/03 08:39:51;;;;;;;5.75;2.40;;;;;;;7.73;50.03;103105.00;5059708;28;20055;-78
2023/04/03 08:42:23;;;;;;;5.10;2.25;;;;;;;7.80;50.55;103106.00;5068328;28;20029;-72
2023/04/03 08:45:33;;;;;;;5.85;2.70;;;;;;;7.87;51.26;103107.03;5062447;28;20037;-73
2023/04/03 08:48:07;;;;;;;4.13;2.53;;;;;;;7.85;48.90;103114.63;5040724;28;20040;-74
2023/04/03 08:50:43;;;;;;;6.03;2.30;;;;;;;7.91;49.26;103108.38;5057911;28;20029;-73
2023/04/03 08:53:26;;;;;;;3.05;1.98;;;;;;;8.01;49.32;103114.53;5064604;28;20476;-74
2023/04/03 08:55:53;;;;;;;6.88;2.58;;;;;;;8.14;48.00;103108.44;5066810;28;20036;-72
2023/04/03 08:58:25;;;;;;;4.45;2.00;;;;;;;8.19;47.23;103110.66;5063087;28;20025;-71
2023/04/03 09:00:58;;;;;;;5.47;2.10;;;;;;;8.20;46.00;103107.69;5061983;28;20037;-70
2023/04/03 09:03:24;;;;;;;3.40;1.80;;;;;;;8.17;44.30;103115.50;5053811;28;20063;-71
2023/04/03 09:05:55;;;;;;;3.65;1.88;;;;;;;8.20;44.00;103106.84;5067755;28;20435;-73
2023/04/03 09:08:25;;;;;;;5.68;2.08;;;;;;;8.28;44.98;103102.09;5063503;28;20033;-73
2023/04/03 09:11:12;;;;;;;5.25;2.17;;;;;;;8.45;46.63;103099.25;5066703;28;20043;-71
2023/04/03 09:13:50;;;;;;;5.57;2.30;;;;;;;8.57;47.89;103109.72;5072735;28;20059;-72
2023/04/03 09:16:25;;;;;;;4.43;2.47;;;;;;;8.67;45.25;103105.84;5075316;28;20043;-73
2023/04/03 09:19:02;;;;;;;7.57;1.67;;;;;;;8.69;42.80;103109.31;5062459;28;20402;-71
2023/04/03 09:21:34;;;;;;;3.95;1.77;;;;;;;8.65;40.52;103116.25;5069714;28;20020;-72
2023/04/03 09:24:01;;;;;;;;;;;;;;;8.69;41.88;103121.22;5076048;28;20036;-71
2023/04/03 09:26:35;;;;;;;3.30;1.73;;;;;;;8.70;39.26;103113.78;5070246;28;19921;-71
2023/04/03 09:29:06;;;;;;;3.75;1.67;;;;;;;8.69;37.21;103117.59;5062841;28;20031;-71
2023/04/03 09:31:45;;;;;;;4.97;1.73;;;;;;;8.74;39.11;103116.00;5077410;28;20016;-73
2023/04/03 09:34:22;;;;;;;4.22;1.60;;;;;;;8.81;38.23;103114.22;5085885;28;20035;-73
2023/04/03 09:36:51;;;;;;;3.90;1.60;;;;;;;8.92;37.62;103112.91;5084763;28;20032;-62
2023/04/03 09:39:25;;;;;;;4.55;1.92;;;;;;;8.92;38.13;103107.38;5077289;28;20032;-70
2023/04/03 09:42:01;;;;;;;4.13;1.70;;;;;;;8.96;39.50;103113.38;5076855;28;20024;-70
2023/04/03 09:44:30;;;;;;;2.03;1.60;;;;;;;8.98;38.22;103092.75;5070068;28;20033;-63
2023/04/03 09:46:56;;;;;;;2.88;1.63;;;;;;;9.02;39.26;103090.47;5072775;28;20487;-71
2023/04/03 09:49:21;;;;;;;4.50;1.80;;;;;;;9.09;39.87;103084.00;5093133;28;20027;-72
2023/04/03 09:51:47;;;;;;;2.10;1.30;;;;;;;9.08;37.06;103089.72;5071163;28;20059;-72
2023/04/03 09:54:39;;;;;;;2.95;1.38;;;;;;;9.10;37.14;103095.94;5070622;28;20028;-72
2023/04/03 09:57:11;;;;;;;3.08;1.40;;;;;;;9.10;35.96;103085.69;5070758;28;20052;-69
2023/04/03 09:59:56;;;;;;;2.85;1.40;;;;;;;9.09;34.66;103074.81;5068936;28;20111;-72
2023/04/03 10:02:33;;;;;;;4.93;1.35;;;;;;;9.12;35.00;103068.03;5070128;28;20025;-72
2023/04/03 10:04:59;;;;;;;3.30;1.70;;;;;;;9.09;34.05;103070.13;5073931;28;20033;-72
2023/04/03 10:07:35;;;;;;;3.95;1.48;;;;;;;9.11;34.66;103072.72;5070917;28;20760;-71
2023/04/03 10:10:22;;;;;;;1.67;1.30;;;;;;;9.10;34.98;103076.53;5077160;28;20151;-69
2023/04/03 10:12:48;;;;;;;2.13;1.20;;;;;;;9.12;34.39;103079.09;5072232;28;20079;-69
2023/04/03 10:15:15;;;;;;;2.85;1.70;;;;;;;9.10;33.36;103082.94;5070116;28;20468;-70
2023/04/03 10:17:55;;;;;;;2.20;1.20;;;;;;;9.03;32.74;103070.88;5091251;28;20027;-74
2023/04/03 10:20:35;;;;;;;2.22;1.40;;;;;;;9.01;34.35;103073.00;5081566;28;20433;-74
2023/04/03 10:23:26;;;;;;;2.83;1.50;;;;;;;9.11;34.81;103075.47;5071244;28;20025;-71
2023/04/03 10:26:29;;;;;;;1.77;1.10;;;;;;;9.15;35.40;103074.06;5075675;28;20028;-72
2023/04/03 10:29:19;;;;;;;1.65;1.30;;;;;;;9.09;34.02;103067.38;5060137;28;20041;-74
2023/04/03 10:32:13;;;;;;;4.10;1.30;;;;;;;9.13;34.91;103059.53;5063418;28;20047;-72
2023/04/03 10:34:44;;;;;;;3.67;1.35;;;;;;;9.13;33.74;103054.00;5070330;28;20033;-72
2023/04/03 10:37:51;;;;;;;2.33;1.08;;;;;;;9.13;32.91;103056.78;5064688;28;20026;-72
2023/04/03 10:40:31;;;;;;;2.35;1.20;;;;;;;8.99;32.98;103050.16;5049668;28;20032;-72
2023/04/03 10:43:19;;;;;;;1.77;1.20;;;;;;;9.02;33.78;103044.25;5076319;28;20115;-73
2023/04/03 10:45:50;;;;;;;1.75;1.25;;;;;;;9.05;33.21;103046.63;5083618;28;20471;-73
2023/04/03 10:48:36;;;;;;;2.07;1.20;;;;;;;9.08;33.70;103035.19;5066031;28;20381;-73
2023/04/03 10:51:14;;;;;;;1.52;1.23;;;;;;;9.16;34.01;103042.53;5056242;28;20052;-73
2023/04/03 10:54:00;;;;;;;2.58;1.00;;;;;;;9.22;33.02;103036.22;5066938;28;20110;-72
2023/04/03 10:56:42;;;;;;;4.88;1.30;;;;;;;9.16;33.46;103013.97;5068246;28;20074;-72
2023/04/03 10:59:18;;;;;;;2.40;1.13;;;;;;;9.17;32.75;103035.94;5071922;28;20029;-68
2023/04/03 11:01:47;;;;;;;1.83;1.20;;;;;;;9.10;30.70;103026.66;5059665;28;20036;-70
2023/04/03 11:04:19;;;;;;;2.22;1.17;;;;;;;9.08;31.87;103024.09;5070471;28;20020;-72
2023/04/03 11:06:58;;;;;;;1.92;1.20;;;;;;;9.20;33.70;103010.63;5069752;28;20033;-71
2023/04/03 11:09:31;;;;;;;2.13;1.20;;;;;;;9.26;32.75;103009.84;5077750;28;20637;-71
2023/04/03 11:12:28;;;;;;;1.52;1.30;;;;;;;9.36;34.39;103012.34;5080546;28;20441;-71
2023/04/03 11:14:56;;;;;;;1.92;1.10;;;;;;;9.30;32.95;103013.09;5048283;28;20055;-72
2023/04/03 11:17:25;;;;;;;2.00;1.20;;;;;;;9.39;33.40;103022.16;5074543;28;20111;-68
2023/04/03 11:20:09;;;;;;;3.92;1.25;;;;;;;9.47;33.35;103020.19;5057179;28;20460;-68
2023/04/03 11:22:42;;;;;;;3.63;1.10;;;;;;;9.43;32.18;103020.72;5069049;28;20028;-73
2023/04/03 11:25:10;;;;;;;3.20;1.50;;;;;;;9.40;31.89;103004.50;5062796;28;20033;-73
2023/04/03 11:27:43;;;;;;;1.20;1.02;;;;;;;9.43;31.30;103010.53;5061995;28;20038;-70
2023/04/03 11:30:18;;;;;;;2.05;1.10;;;;;;;9.48;32.21;102999.72;5068262;28;20025;-73
2023/04/03 11:33:17;;;;;;;3.50;1.40;;;;;;;9.52;34.00;102998.28;5063241;28;20116;-69
2023/04/03 11:35:46;;;;;;;2.60;1.48;;;;;;;9.53;32.26;102990.81;5066173;28;20507;-68
2023/04/03 11:38:26;;;;;;;4.47;1.20;;;;;;;9.61;32.31;102981.53;5077663;28;20019;-68
2023/04/03 11:40:54;;;;;;;1.52;1.00;;;;;;;9.57;29.62;102981.91;5070161;28;20153;-63
2023/04/03 11:43:31;;;;;;;2.22;1.20;;;;;;;9.52;29.66;102980.78;5084931;28;20051;-70